Time;durP1;ratioP1;P1;durP2;ratioP2;P2;SDS_P1;SDS_P2;PMS_P1;PMS_P2;Temp;Humidity;BMP_temperature;BMP_pressure;BME280_temperature;BME280_humidity;BME280_pressure;Samples;Min_cycle;Max_cycle;Signal;HPM_P1;HPM_P2
2024/01/31 00:01:50;;;;;;;10.80;1.08;;;6.00;99.90;;;;;;5074528;28;20041;-71
2024/01/31 00:04:15;;;;;;;7.45;1.20;;;6.00;99.90;;;;;;5076026;28;20044;-71
2024/01/31 00:06:41;;;;;;;9.68;1.63;;;6.00;99.90;;;;;;5075900;28;20033;-72
2024/01/31 00:09:07;;;;;;;6.30;1.13;;;6.00;99.90;;;;;;5074415;28;20091;-72
2024/01/31 00:11:33;;;;;;;10.35;1.45;;;6.00;99.90;;;;;;5075824;28;20087;-72
2024/01/31 00:13:58;;;;;;;12.40;1.55;;;6.00;99.90;;;;;;5075838;28;20031;-72
2024/01/31 00:16:24;;;;;;;7.82;1.23;;;6.00;99.90;;;;;;5075695;28;20542;-71
2024/01/31 00:18:50;;;;;;;14.23;1.90;;;5.90;99.90;;;;;;5075737;28;20052;-71
2024/01/31 00:21:17;;;;;;;11.18;1.55;;;5.90;99.90;;;;;;5074196;28;20051;-71
2024/01/31 00:23:42;;;;;;;10.85;2.25;;;5.90;99.90;;;;;;5075349;28;20496;-71
2024/01/31 00:26:08;;;;;;;9.35;1.23;;;5.90;99.90;;;;;;5075559;28;20047;-71
2024/01/31 00:28:33;;;;;;;7.38;1.67;;;5.90;99.90;;;;;;5075562;28;20049;-71
2024/01/31 00:30:59;;;;;;;7.70;1.42;;;5.90;99.90;;;;;;5073961;28;20087;-71
2024/01/31 00:33:24;;;;;;;13.35;1.23;;;5.90;99.90;;;;;;5075244;28;20029;-71
2024/01/31 00:35:50;;;;;;;8.70;1.40;;;5.80;99.90;;;;;;5075361;28;20033;-71
2024/01/31 00:38:16;;;;;;;10.02;1.35;;;5.80;99.90;;;;;;5074135;28;20393;-71
2024/01/31 00:40:41;;;;;;;7.97;1.13;;;5.80;99.90;;;;;;5075395;28;20397;-71
2024/01/31 00:43:09;;;;;;;9.20;1.20;;;5.70;99.90;;;;;;5073764;28;20068;-71
2024/01/31 00:45:35;;;;;;;11.68;1.40;;;5.80;99.90;;;;;;5074777;28;20051;-72
2024/01/31 00:48:00;;;;;;;7.43;1.20;;;5.80;99.90;;;;;;5075251;28;20029;-72
2024/01/31 00:50:26;;;;;;;10.15;1.30;;;5.80;99.90;;;;;;5073541;28;20409;-72
2024/01/31 00:52:51;;;;;;;11.07;1.55;;;5.80;99.90;;;;;;5075087;28;20119;-71
2024/01/31 00:55:17;;;;;;;9.75;1.52;;;5.80;99.90;;;;;;5073435;28;20036;-71
2024/01/31 00:57:44;;;;;;;9.52;1.52;;;5.80;99.90;;;;;;5073708;28;20040;-71
2024/01/31 01:00:11;;;;;;;12.15;1.65;;;5.80;99.90;;;;;;5073435;28;20059;-71
2024/01/31 01:02:40;;;;;;;9.05;1.25;;;5.90;99.90;;;;;;5073325;28;20052;-71
2024/01/31 01:05:08;;;;;;;11.65;1.58;;;5.80;99.90;;;;;;5073223;28;20051;-71
2024/01/31 01:07:38;;;;;;;7.97;1.27;;;5.80;99.90;;;;;;5074483;28;20455;-71
2024/01/31 01:10:06;;;;;;;8.50;1.30;;;5.80;99.90;;;;;;5074963;28;20056;-72
2024/01/31 01:12:31;;;;;;;7.63;1.17;;;5.80;99.90;;;;;;5074682;28;20036;-72
2024/01/31 01:14:57;;;;;;;6.43;1.38;;;5.80;99.90;;;;;;5074623;28;20037;-72
2024/01/31 01:17:23;;;;;;;7.10;1.65;;;5.80;99.90;;;;;;5073028;28;20119;-71
2024/01/31 01:19:48;;;;;;;5.95;1.00;;;5.80;99.90;;;;;;5074538;28;20105;-72
2024/01/31 01:22:14;;;;;;;8.20;0.90;;;5.80;99.90;;;;;;5074155;28;20044;-72
2024/01/31 01:24:39;;;;;;;5.13;0.93;;;5.80;99.90;;;;;;5072942;28;20047;-71
2024/01/31 01:27:05;;;;;;;8.23;0.88;;;5.80;99.90;;;;;;5073081;28;20043;-71
2024/01/31 01:29:31;;;;;;;9.93;1.45;;;5.90;99.90;;;;;;5072753;28;20578;-71
2024/01/31 01:31:57;;;;;;;8.00;1.17;;;5.80;99.90;;;;;;5074346;28;20051;-71
2024/01/31 01:34:22;;;;;;;5.25;1.20;;;5.80;99.90;;;;;;5072759;28;20041;-71
2024/01/31 01:36:48;;;;;;;9.18;1.27;;;5.90;99.90;;;;;;5074110;28;20029;-71
2024/01/31 01:39:13;;;;;;;7.70;1.40;;;5.90;99.90;;;;;;5056315;28;20378;-72
2024/01/31 01:41:39;;;;;;;6.38;1.20;;;5.80;99.90;;;;;;5072628;28;20523;-72
2024/01/31 01:44:05;;;;;;;6.60;1.20;;;5.90;99.90;;;;;;5073633;28;20098;-72
2024/01/31 01:46:35;;;;;;;8.88;1.20;;;5.80;99.90;;;;;;5074003;28;20079;-71
2024/01/31 01:49:00;;;;;;;6.88;0.85;;;5.90;99.90;;;;;;5072568;28;20036;-71
2024/01/31 01:51:26;;;;;;;9.68;1.13;;;5.80;99.90;;;;;;5073566;28;20119;-71
2024/01/31 01:53:52;;;;;;;4.88;0.98;;;5.80;99.90;;;;;;5073942;28;20032;-71
2024/01/31 01:56:19;;;;;;;6.05;0.95;;;5.80;99.90;;;;;;5072576;28;20040;-71
2024/01/31 01:58:47;;;;;;;10.88;1.10;;;5.80;99.90;;;;;;5072335;28;20050;-71
2024/01/31 02:01:13;;;;;;;6.07;1.00;;;5.80;99.90;;;;;;5072535;28;20049;-71
2024/01/31 02:03:39;;;;;;;8.85;1.20;;;5.80;99.90;;;;;;5073745;28;20079;-71
2024/01/31 02:06:05;;;;;;;7.00;1.20;;;5.80;99.90;;;;;;5072125;28;20040;-71
2024/01/31 02:08:30;;;;;;;6.65;1.35;;;5.80;99.90;;;;;;5072205;28;20181;-71
2024/01/31 02:10:56;;;;;;;10.63;1.50;;;5.90;99.90;;;;;;5073583;28;20032;-71
2024/01/31 02:13:22;;;;;;;5.78;1.00;;;5.80;99.90;;;;;;5055100;28;20568;-71
2024/01/31 02:15:57;;;;;;;6.97;1.10;;;5.80;99.90;;;;;;5073508;28;20039;-71
2024/01/31 02:18:25;;;;;;;4.88;0.70;;;5.80;99.90;;;;;;5072436;28;20151;-71
2024/01/31 02:20:51;;;;;;;5.85;1.05;;;5.80;99.90;;;;;;5072052;28;20044;-71
2024/01/31 02:23:17;;;;;;;5.80;1.75;;;5.80;99.90;;;;;;5071979;28;20047;-71
2024/01/31 02:25:44;;;;;;;7.70;1.35;;;5.80;99.90;;;;;;5071899;28;20536;-72
2024/01/31 02:28:10;;;;;;;6.25;1.13;;;5.80;99.90;;;;;;5071932;28;20556;-72
2024/01/31 02:30:35;;;;;;;7.80;1.00;;;5.80;99.90;;;;;;5073342;28;20120;-72
2024/01/31 02:33:01;;;;;;;8.35;0.90;;;5.70;99.90;;;;;;5071874;28;20037;-72
2024/01/31 02:35:27;;;;;;;6.63;0.80;;;5.70;99.90;;;;;;5072987;28;20067;-72
2024/01/31 02:37:53;;;;;;;7.93;0.98;;;5.70;99.90;;;;;;5073338;28;20032;-71
2024/01/31 02:40:19;;;;;;;6.65;1.00;;;5.60;99.90;;;;;;5073019;28;20516;-71
2024/01/31 02:42:44;;;;;;;6.03;1.00;;;5.60;99.90;;;;;;5073292;28;20044;-71
2024/01/31 02:45:10;;;;;;;6.50;0.90;;;5.50;99.90;;;;;;5071480;28;20050;-71
2024/01/31 02:47:36;;;;;;;5.60;1.10;;;5.40;99.90;;;;;;5071754;28;20124;-71
2024/01/31 02:50:03;;;;;;;7.28;1.00;;;5.40;99.90;;;;;;5073174;28;20440;-71
2024/01/31 02:52:28;;;;;;;7.13;0.95;;;5.30;99.90;;;;;;5071733;28;20037;-71
2024/01/31 02:54:54;;;;;;;9.15;1.20;;;5.30;99.90;;;;;;5071948;28;20045;-71
2024/01/31 02:57:20;;;;;;;9.02;1.13;;;5.30;99.90;;;;;;5071601;28;20410;-71
2024/01/31 02:59:46;;;;;;;8.55;0.85;;;5.30;99.90;;;;;;5071607;28;20059;-71
2024/01/31 03:02:14;;;;;;;8.30;0.90;;;5.40;99.90;;;;;;5073132;28;20037;-71
2024/01/31 03:04:40;;;;;;;5.07;1.17;;;5.30;99.90;;;;;;5071570;28;20055;-71
2024/01/31 03:07:06;;;;;;;8.20;0.88;;;5.30;99.90;;;;;;5055065;28;20044;-71
2024/01/31 03:09:31;;;;;;;5.47;0.80;;;5.30;99.90;;;;;;5071462;28;20458;-71
2024/01/31 03:11:57;;;;;;;6.55;0.88;;;5.30;99.90;;;;;;5073027;28;20036;-71
2024/01/31 03:14:23;;;;;;;10.63;1.08;;;5.40;99.90;;;;;;5072985;28;20033;-71
2024/01/31 03:16:48;;;;;;;7.25;1.20;;;5.30;99.90;;;;;;5072946;28;20401;-71
2024/01/31 03:19:15;;;;;;;6.13;0.68;;;5.30;99.90;;;;;;5072958;28;20041;-71
2024/01/31 03:21:41;;;;;;;5.78;0.73;;;5.30;99.90;;;;;;5072876;28;20044;-72
2024/01/31 03:24:07;;;;;;;7.88;0.75;;;5.40;99.90;;;;;;5072898;28;20066;-72
2024/01/31 03:26:32;;;;;;;7.65;0.90;;;5.30;99.90;;;;;;5074405;28;20045;-71
2024/01/31 03:29:01;;;;;;;6.90;0.88;;;5.30;99.90;;;;;;5076692;28;20505;-71
2024/01/31 03:31:27;;;;;;;3.47;0.98;;;5.40;99.90;;;;;;5075098;28;20072;-71
2024/01/31 03:33:52;;;;;;;9.68;1.58;;;5.40;99.90;;;;;;5075075;28;20043;-71
2024/01/31 03:36:18;;;;;;;5.85;0.80;;;5.40;99.90;;;;;;5076422;28;20116;-71
2024/01/31 03:38:44;;;;;;;5.97;1.13;;;5.30;99.90;;;;;;5076523;28;20063;-71
2024/01/31 03:41:09;;;;;;;8.50;1.45;;;5.30;99.90;;;;;;5076103;28;20040;-71
2024/01/31 03:43:35;;;;;;;4.43;0.80;;;5.30;99.90;;;;;;5074887;28;20127;-71
2024/01/31 03:46:05;;;;;;;6.30;0.60;;;5.30;99.90;;;;;;5058329;28;20048;-71
2024/01/31 03:48:31;;;;;;;6.28;0.90;;;5.30;99.90;;;;;;5074835;28;20527;-71
2024/01/31 03:50:58;;;;;;;8.10;0.80;;;5.30;99.90;;;;;;5076175;28;20036;-71
2024/01/31 03:53:25;;;;;;;7.32;0.70;;;5.30;99.90;;;;;;5075943;28;20560;-71
2024/01/31 03:55:52;;;;;;;8.15;1.15;;;5.30;99.90;;;;;;5074980;28;20048;-71
2024/01/31 03:58:17;;;;;;;5.30;1.08;;;5.30;99.90;;;;;;5074658;28;20564;-71
2024/01/31 04:00:44;;;;;;;5.80;0.82;;;5.30;99.90;;;;;;5074907;28;20044;-72
2024/01/31 04:03:09;;;;;;;3.75;0.50;;;5.30;99.90;;;;;;5057875;28;20093;-72
2024/01/31 04:05:35;;;;;;;3.47;0.40;;;5.20;99.90;;;;;;5074707;28;20040;-71
2024/01/31 04:08:01;;;;;;;4.07;0.40;;;5.20;99.90;;;;;;5074466;28;20468;-71
2024/01/31 04:10:27;;;;;;;2.00;0.30;;;5.20;99.90;;;;;;5075837;28;20046;-71
2024/01/31 04:12:53;;;;;;;3.15;0.32;;;5.10;99.90;;;;;;5074402;28;20120;-71
2024/01/31 04:15:19;;;;;;;5.57;1.38;;;5.00;99.90;;;;;;5075747;28;20043;-71
2024/01/31 04:17:44;;;;;;;6.60;0.55;;;5.00;99.90;;;;;;5074512;28;20051;-71
2024/01/31 04:20:11;;;;;;;3.47;0.60;;;5.00;99.90;;;;;;5075783;28;20040;-71
2024/01/31 04:22:37;;;;;;;7.20;1.00;;;4.90;99.90;;;;;;5074175;28;20412;-71
2024/01/31 04:25:07;;;;;;;6.63;1.38;;;4.90;99.90;;;;;;5075687;28;20493;-71
2024/01/31 04:27:33;;;;;;;7.63;0.80;;;4.90;99.90;;;;;;5074098;28;20085;-71
2024/01/31 04:29:58;;;;;;;6.78;0.95;;;4.90;99.90;;;;;;5075480;28;20123;-71
2024/01/31 04:32:24;;;;;;;7.85;1.10;;;4.90;99.90;;;;;;5057395;28;20440;-71
2024/01/31 04:34:50;;;;;;;4.03;0.73;;;5.00;99.90;;;;;;5073979;28;20047;-71
2024/01/31 04:37:16;;;;;;;6.28;0.90;;;4.90;99.90;;;;;;5075122;28;20124;-71
2024/01/31 04:39:43;;;;;;;4.15;0.82;;;4.90;99.90;;;;;;5075393;28;20116;-71
2024/01/31 04:42:08;;;;;;;6.97;0.63;;;4.90;99.90;;;;;;5073813;28;20520;-71
2024/01/31 04:44:34;;;;;;;3.75;0.93;;;4.90;99.90;;;;;;5073943;28;20037;-71
2024/01/31 04:47:00;;;;;;;6.75;1.00;;;4.80;99.90;;;;;;5075180;28;20561;-71
2024/01/31 04:49:26;;;;;;;7.63;1.25;;;4.80;99.90;;;;;;5073704;28;20040;-71
2024/01/31 04:51:52;;;;;;;2.85;0.60;;;4.80;99.90;;;;;;5073561;28;20064;-71
2024/01/31 04:54:18;;;;;;;8.05;1.00;;;4.80;99.90;;;;;;5073602;28;20036;-71
2024/01/31 04:56:43;;;;;;;4.70;0.50;;;4.70;99.90;;;;;;5073795;28;20032;-71
2024/01/31 04:59:09;;;;;;;8.43;0.77;;;4.60;99.90;;;;;;5074705;28;20036;-71
2024/01/31 05:01:35;;;;;;;6.32;0.80;;;4.60;99.90;;;;;;5073708;28;20135;-71
2024/01/31 05:04:00;;;;;;;8.80;1.02;;;4.50;99.90;;;;;;5074612;28;20046;-71
2024/01/31 05:06:26;;;;;;;6.38;0.85;;;4.50;99.90;;;;;;5074780;28;20044;-71
2024/01/31 05:08:52;;;;;;;6.78;0.60;;;4.40;99.90;;;;;;5073269;28;20036;-71
2024/01/31 05:11:18;;;;;;;5.00;0.75;;;4.30;99.90;;;;;;5074661;28;20052;-71
2024/01/31 05:13:44;;;;;;;3.88;0.60;;;4.30;99.90;;;;;;5073458;28;20037;-71
2024/01/31 05:16:09;;;;;;;4.45;0.60;;;4.30;99.90;;;;;;5074259;28;20525;-71
2024/01/31 05:18:36;;;;;;;4.57;1.25;;;4.30;99.90;;;;;;5074300;28;20111;-71
2024/01/31 05:21:01;;;;;;;4.78;0.63;;;4.10;99.90;;;;;;5074233;28;20501;-71
2024/01/31 05:23:27;;;;;;;4.20;0.95;;;4.20;99.90;;;;;;5074485;28;20048;-71
2024/01/31 05:25:53;;;;;;;6.38;1.05;;;4.10;99.90;;;;;;5072901;28;20044;-71
2024/01/31 05:28:19;;;;;;;5.10;1.00;;;4.20;99.90;;;;;;5072891;28;20071;-71
2024/01/31 05:30:46;;;;;;;9.15;0.80;;;4.10;99.90;;;;;;5074270;28;20041;-71
2024/01/31 05:33:12;;;;;;;3.30;0.82;;;4.10;99.90;;;;;;5072803;28;20082;-71
2024/01/31 05:35:38;;;;;;;6.53;0.90;;;4.10;99.90;;;;;;5074228;28;20043;-71
2024/01/31 05:38:04;;;;;;;5.60;0.75;;;4.10;99.90;;;;;;5073938;28;20037;-71
2024/01/31 05:40:30;;;;;;;6.07;0.90;;;4.10;99.90;;;;;;5072973;28;20052;-71
2024/01/31 05:42:56;;;;;;;6.35;0.85;;;4.20;99.90;;;;;;5072927;28;20045;-71
2024/01/31 05:45:23;;;;;;;6.32;1.00;;;4.30;99.90;;;;;;5073715;28;20067;-71
2024/01/31 05:47:48;;;;;;;6.05;1.20;;;4.20;99.90;;;;;;5073470;28;20048;-71
2024/01/31 05:50:14;;;;;;;9.20;1.85;;;4.30;99.90;;;;;;5074486;28;20040;-71
2024/01/31 05:52:40;;;;;;;6.70;0.93;;;4.40;99.90;;;;;;5072478;28;20036;-71
2024/01/31 05:55:05;;;;;;;6.68;1.15;;;4.40;99.90;;;;;;5072667;28;20059;-71
2024/01/31 05:57:32;;;;;;;8.70;1.25;;;4.50;99.90;;;;;;5072252;28;20116;-72
2024/01/31 05:59:57;;;;;;;4.97;1.00;;;4.60;99.90;;;;;;5072350;28;20085;-71
2024/01/31 06:02:23;;;;;;;5.82;1.00;;;4.50;99.90;;;;;;5073830;28;20116;-71
2024/01/31 06:04:48;;;;;;;3.85;0.98;;;4.50;99.90;;;;;;5072244;28;20040;-71
2024/01/31 06:07:14;;;;;;;5.75;0.98;;;4.60;99.90;;;;;;5072442;28;20136;-71
2024/01/31 06:09:39;;;;;;;9.27;1.20;;;4.60;99.90;;;;;;5073298;28;20472;-71
2024/01/31 06:12:06;;;;;;;7.93;1.25;;;4.70;99.90;;;;;;5072176;28;20119;-71
2024/01/31 06:14:32;;;;;;;4.65;1.00;;;4.70;99.90;;;;;;5072101;28;20619;-71
2024/01/31 06:16:58;;;;;;;7.78;1.13;;;4.80;99.90;;;;;;5072032;28;20040;-71
2024/01/31 06:19:23;;;;;;;7.55;1.40;;;4.70;99.90;;;;;;5073591;28;20075;-71
2024/01/31 06:21:49;;;;;;;7.13;1.00;;;4.70;99.90;;;;;;5071971;28;20481;-71
2024/01/31 06:24:15;;;;;;;7.72;1.20;;;4.70;99.90;;;;;;5071978;28;20075;-71
2024/01/31 06:26:41;;;;;;;7.78;1.17;;;4.80;99.90;;;;;;5073369;28;20044;-71
2024/01/31 06:29:07;;;;;;;8.40;1.30;;;4.80;99.90;;;;;;5073445;28;20101;-72
2024/01/31 06:31:40;;;;;;;10.57;1.23;;;4.80;99.90;;;;;;5071888;28;20040;-71
2024/01/31 06:34:06;;;;;;;3.28;1.20;;;4.80;99.90;;;;;;5071904;28;20040;-71
2024/01/31 06:36:31;;;;;;;7.18;1.40;;;4.80;99.90;;;;;;5071834;28;20064;-71
2024/01/31 06:38:59;;;;;;;6.60;1.27;;;4.90;99.90;;;;;;5073146;28;20103;-71
2024/01/31 06:41:25;;;;;;;7.68;1.42;;;5.00;99.90;;;;;;5073332;28;20156;-71
2024/01/31 06:43:51;;;;;;;5.43;1.33;;;4.90;99.90;;;;;;5071795;28;20049;-71
2024/01/31 06:46:18;;;;;;;5.05;1.17;;;4.90;99.90;;;;;;5071610;28;20055;-71
2024/01/31 06:48:44;;;;;;;5.85;1.20;;;4.90;99.90;;;;;;5073275;28;20076;-71
2024/01/31 06:51:09;;;;;;;7.20;1.45;;;5.00;99.90;;;;;;5073170;28;20080;-71
2024/01/31 06:53:35;;;;;;;4.93;1.10;;;5.00;99.90;;;;;;5071936;28;20080;-71
2024/01/31 06:56:01;;;;;;;9.20;1.77;;;5.00;99.90;;;;;;5071854;28;20049;-71
2024/01/31 06:58:27;;;;;;;7.53;1.73;;;5.00;99.90;;;;;;5073166;28;20449;-71
2024/01/31 07:00:55;;;;;;;7.65;1.52;;;5.00;99.90;;;;;;5075529;28;20048;-71
2024/01/31 07:03:21;;;;;;;8.55;1.95;;;5.00;99.90;;;;;;5077215;28;20045;-71
2024/01/31 07:05:47;;;;;;;7.82;1.60;;;5.10;99.90;;;;;;5077061;28;20047;-71
2024/01/31 07:08:13;;;;;;;5.82;1.13;;;5.10;99.90;;;;;;5077197;28;20044;-71
2024/01/31 07:10:39;;;;;;;5.70;1.10;;;5.10;99.90;;;;;;5076995;28;20048;-71
2024/01/31 07:13:05;;;;;;;7.57;1.30;;;5.10;99.90;;;;;;5077364;28;20037;-71
2024/01/31 07:15:31;;;;;;;11.45;1.60;;;5.10;99.90;;;;;;5075405;28;20047;-71
2024/01/31 07:17:56;;;;;;;8.55;1.50;;;5.20;99.90;;;;;;5076941;28;20032;-71
2024/01/31 07:20:22;;;;;;;8.07;1.63;;;5.20;99.90;;;;;;5076904;28;20040;-71
2024/01/31 07:22:47;;;;;;;5.55;1.05;;;5.20;99.90;;;;;;5076839;28;20459;-71
2024/01/31 07:25:15;;;;;;;7.72;1.25;;;5.20;99.90;;;;;;5075464;28;20052;-71
2024/01/31 07:27:41;;;;;;;8.57;1.42;;;5.20;99.90;;;;;;5076716;28;20059;-71
2024/01/31 07:30:11;;;;;;;5.80;1.30;;;5.20;99.90;;;;;;5075149;28;20424;-71
2024/01/31 07:32:40;;;;;;;10.23;1.52;;;5.20;99.90;;;;;;5075123;28;20496;-71
2024/01/31 07:35:09;;;;;;;8.25;1.50;;;5.20;99.90;;;;;;5075312;28;20083;-71
2024/01/31 07:37:36;;;;;;;6.57;1.40;;;5.20;99.90;;;;;;5075015;28;20043;-71
2024/01/31 07:40:04;;;;;;;6.78;1.48;;;5.10;99.90;;;;;;5075015;28;20044;-71
2024/01/31 07:42:29;;;;;;;6.75;1.42;;;5.20;99.90;;;;;;5076216;28;20074;-71
2024/01/31 07:44:55;;;;;;;5.10;1.85;;;5.20;99.90;;;;;;5076172;28;20080;-71
2024/01/31 07:47:21;;;;;;;5.20;1.40;;;5.20;99.90;;;;;;5076312;28;20086;-71
2024/01/31 07:49:46;;;;;;;9.20;2.05;;;5.20;99.90;;;;;;5074961;28;20037;-71
2024/01/31 07:52:12;;;;;;;7.30;1.60;;;5.20;99.90;;;;;;5076360;28;20553;-71
2024/01/31 07:54:37;;;;;;;7.78;1.60;;;5.20;99.90;;;;;;5076210;28;20047;-71
2024/01/31 07:57:03;;;;;;;7.07;1.63;;;5.20;99.90;;;;;;5074550;28;20037;-71
2024/01/31 07:59:29;;;;;;;6.65;1.70;;;5.10;99.90;;;;;;5076221;28;20037;-71
2024/01/31 08:01:54;;;;;;;7.93;1.75;;;5.10;99.90;;;;;;5057908;28;20452;-72
2024/01/31 08:04:20;;;;;;;7.40;1.90;;;5.10;99.90;;;;;;5074829;28;20076;-71
2024/01/31 08:06:45;;;;;;;6.65;2.20;;;5.10;99.90;;;;;;5074444;28;20040;-71
2024/01/31 08:09:11;;;;;;;7.68;2.47;;;5.10;99.90;;;;;;5074487;28;20130;-71
2024/01/31 08:11:43;;;;;;;7.07;2.53;;;5.10;99.90;;;;;;5075258;28;20058;-71
2024/01/31 08:14:09;;;;;;;7.10;2.35;;;5.20;99.90;;;;;;5074433;28;20481;-71
2024/01/31 08:16:36;;;;;;;8.52;2.40;;;5.10;99.90;;;;;;5074257;28;20404;-71
2024/01/31 08:19:02;;;;;;;10.60;2.72;;;5.10;99.90;;;;;;5074293;28;20119;-71
2024/01/31 08:21:29;;;;;;;7.47;2.53;;;5.10;99.90;;;;;;5074609;28;20040;-71
2024/01/31 08:23:55;;;;;;;10.40;2.42;;;5.10;99.90;;;;;;5075733;28;20048;-71
2024/01/31 08:26:22;;;;;;;8.65;2.72;;;5.10;99.90;;;;;;5074106;28;20041;-71
2024/01/31 08:28:48;;;;;;;7.32;2.78;;;5.10;99.90;;;;;;5075372;28;20124;-71
2024/01/31 08:31:13;;;;;;;6.55;2.90;;;5.10;99.90;;;;;;5073997;28;20119;-71
2024/01/31 08:33:39;;;;;;;12.20;3.40;;;5.20;99.90;;;;;;5074055;28;20036;-71
2024/01/31 08:36:04;;;;;;;7.13;3.42;;;5.20;99.90;;;;;;5074251;28;20098;-70
2024/01/31 08:38:30;;;;;;;9.77;3.30;;;5.20;99.90;;;;;;5073921;28;20040;-71
2024/01/31 08:40:56;;;;;;;8.75;3.50;;;5.20;99.90;;;;;;5073903;28;20072;-71
2024/01/31 08:43:21;;;;;;;6.38;3.42;;;5.20;99.90;;;;;;5073816;28;20046;-71
2024/01/31 08:45:47;;;;;;;7.72;3.42;;;5.20;99.90;;;;;;5073563;28;20040;-71
2024/01/31 08:48:12;;;;;;;6.50;3.30;;;5.30;99.90;;;;;;5073732;28;20413;-71
2024/01/31 08:50:38;;;;;;;8.98;3.20;;;5.30;99.90;;;;;;5075125;28;20040;-71
2024/01/31 08:53:04;;;;;;;6.22;3.28;;;5.30;99.90;;;;;;5073679;28;20036;-71
2024/01/31 08:55:29;;;;;;;8.23;3.40;;;5.30;99.90;;;;;;5073542;28;20032;-71
2024/01/31 08:57:55;;;;;;;7.75;3.17;;;5.30;99.90;;;;;;5073559;28;20041;-71
2024/01/31 09:00:21;;;;;;;5.93;3.00;;;5.30;99.90;;;;;;5074795;28;20090;-71
2024/01/31 09:02:47;;;;;;;7.95;3.33;;;5.40;99.90;;;;;;5073437;28;20048;-71
2024/01/31 09:05:12;;;;;;;6.07;3.75;;;5.40;99.90;;;;;;5073316;28;20071;-70
2024/01/31 09:07:38;;;;;;;8.13;3.83;;;5.40;99.90;;;;;;5074911;28;20075;-71
2024/01/31 09:10:04;;;;;;;7.82;3.75;;;5.40;99.90;;;;;;5073443;28;20485;-71
2024/01/31 09:12:30;;;;;;;8.25;3.22;;;5.40;99.90;;;;;;5073223;28;20037;-71
2024/01/31 09:14:56;;;;;;;7.07;3.20;;;5.40;99.90;;;;;;5074676;28;20041;-71
2024/01/31 09:17:21;;;;;;;7.50;3.50;;;5.50;99.90;;;;;;5073089;28;20043;-71
2024/01/31 09:19:48;;;;;;;7.25;3.85;;;5.50;99.90;;;;;;5073092;28;20041;-71
2024/01/31 09:22:13;;;;;;;8.18;3.60;;;5.50;99.90;;;;;;5072644;28;20041;-71
2024/01/31 09:24:39;;;;;;;7.65;3.42;;;5.60;99.90;;;;;;5072476;28;20047;-71
2024/01/31 09:27:06;;;;;;;8.65;3.90;;;5.60;99.90;;;;;;5072861;28;20036;-71
2024/01/31 09:29:31;;;;;;;7.38;3.70;;;5.70;99.90;;;;;;5074421;28;20029;-71
2024/01/31 09:31:57;;;;;;;5.50;3.25;;;5.70;99.90;;;;;;5074297;28;20537;-71
2024/01/31 09:34:23;;;;;;;7.40;3.90;;;5.70;99.90;;;;;;5072818;28;20516;-71
2024/01/31 09:36:49;;;;;;;6.63;3.33;;;5.80;99.90;;;;;;5072676;28;20401;-71
2024/01/31 09:39:15;;;;;;;7.43;4.25;;;5.80;99.90;;;;;;5074247;28;20033;-71
2024/01/31 09:41:41;;;;;;;5.85;3.63;;;5.90;99.90;;;;;;5072685;28;20044;-71
2024/01/31 09:44:07;;;;;;;5.72;3.60;;;5.90;99.90;;;;;;5073974;28;20040;-71
2024/01/31 09:46:35;;;;;;;5.50;3.53;;;5.90;99.90;;;;;;5072849;28;20139;-71
2024/01/31 09:49:01;;;;;;;6.05;3.65;;;6.00;99.90;;;;;;5072812;28;20409;-71
2024/01/31 09:51:27;;;;;;;7.85;3.78;;;6.00;99.90;;;;;;5072512;28;20049;-71
2024/01/31 09:53:57;;;;;;;7.50;3.38;;;6.00;99.90;;;;;;5073930;28;20124;-71
2024/01/31 09:56:27;;;;;;;6.13;3.83;;;6.00;99.90;;;;;;5072731;28;20046;-71
2024/01/31 09:58:54;;;;;;;4.72;3.35;;;6.00;99.90;;;;;;5072363;28;20072;-71
2024/01/31 10:01:21;;;;;;;7.45;3.58;;;6.00;99.90;;;;;;5072554;28;20044;-71
2024/01/31 10:03:47;;;;;;;5.78;3.55;;;6.00;99.90;;;;;;5072257;28;20083;-71
2024/01/31 10:06:13;;;;;;;7.43;4.43;;;6.10;99.90;;;;;;5073630;28;20076;-71
2024/01/31 10:08:39;;;;;;;6.07;3.35;;;6.00;99.90;;;;;;5073740;28;20048;-71
2024/01/31 10:11:05;;;;;;;6.05;3.67;;;6.00;99.90;;;;;;5072065;28;20418;-71
2024/01/31 10:13:31;;;;;;;7.45;3.40;;;6.00;99.90;;;;;;5073344;28;20405;-71
2024/01/31 10:15:56;;;;;;;4.70;3.33;;;6.00;99.90;;;;;;5072337;28;20045;-71
2024/01/31 10:18:27;;;;;;;5.07;3.47;;;6.00;99.90;;;;;;5073616;28;20450;-71
2024/01/31 10:20:53;;;;;;;6.60;3.90;;;6.00;99.90;;;;;;5073634;28;20086;-71
2024/01/31 10:23:19;;;;;;;5.30;3.60;;;6.10;99.90;;;;;;5071996;28;20040;-71
2024/01/31 10:25:44;;;;;;;9.32;3.58;;;6.00;99.90;;;;;;5071931;28;20044;-71
2024/01/31 10:28:10;;;;;;;7.43;3.72;;;6.10;99.90;;;;;;5071970;28;20078;-71
2024/01/31 10:30:42;;;;;;;7.72;4.05;;;6.10;99.90;;;;;;5072061;28;20076;-71
2024/01/31 10:33:09;;;;;;;6.70;3.95;;;6.10;99.90;;;;;;5071890;28;20040;-71
2024/01/31 10:35:36;;;;;;;6.32;4.22;;;6.10;99.90;;;;;;5071530;28;20066;-71
2024/01/31 10:38:02;;;;;;;6.97;4.07;;;6.10;99.90;;;;;;5071855;28;20051;-71
2024/01/31 10:40:28;;;;;;;6.88;4.10;;;6.20;99.90;;;;;;5072055;28;20044;-71
2024/01/31 10:42:55;;;;;;;9.25;4.72;;;6.20;99.90;;;;;;5073832;28;20086;-71
2024/01/31 10:45:22;;;;;;;6.38;4.38;;;6.20;99.90;;;;;;5072898;28;20106;-71
2024/01/31 10:47:48;;;;;;;6.30;4.28;;;6.20;99.90;;;;;;5072932;28;20406;-72
2024/01/31 10:50:14;;;;;;;6.20;4.32;;;6.20;99.90;;;;;;5071877;28;20486;-71
2024/01/31 10:52:41;;;;;;;6.65;4.40;;;6.20;99.90;;;;;;5073237;28;20115;-71
2024/01/31 10:55:08;;;;;;;8.93;5.00;;;6.20;99.90;;;;;;5071851;28;20049;-71
2024/01/31 10:57:35;;;;;;;6.05;4.40;;;6.30;99.90;;;;;;5071639;28;20405;-71
2024/01/31 11:00:02;;;;;;;8.65;4.70;;;6.30;99.90;;;;;;5073211;28;20099;-72
2024/01/31 11:02:30;;;;;;;7.32;4.57;;;6.30;99.90;;;;;;5072012;28;20517;-71
2024/01/31 11:05:04;;;;;;;9.30;4.88;;;6.30;99.90;;;;;;5072834;28;20573;-71
2024/01/31 11:07:30;;;;;;;6.50;4.75;;;6.30;99.90;;;;;;5071398;28;20489;-71
2024/01/31 11:09:56;;;;;;;7.22;5.00;;;6.40;99.90;;;;;;5072998;28;20048;-71
2024/01/31 11:12:22;;;;;;;7.85;5.20;;;6.40;99.90;;;;;;5071485;28;20381;-71
2024/01/31 11:14:50;;;;;;;7.80;4.68;;;6.40;99.90;;;;;;5071526;28;20044;-71
2024/01/31 11:17:22;;;;;;;6.50;4.57;;;6.30;99.90;;;;;;5071694;28;20117;-72
2024/01/31 11:19:49;;;;;;;8.15;5.25;;;6.30;99.90;;;;;;5071359;28;20041;-71
2024/01/31 11:22:15;;;;;;;6.88;4.65;;;6.30;99.90;;;;;;5072985;28;20123;-71
2024/01/31 11:24:46;;;;;;;7.78;5.10;;;6.30;99.90;;;;;;5071396;28;20123;-71
2024/01/31 11:27:13;;;;;;;7.10;4.65;;;6.40;99.90;;;;;;5072813;28;20036;-71
2024/01/31 11:29:39;;;;;;;6.63;4.47;;;6.40;99.90;;;;;;5071336;28;20435;-71
2024/01/31 11:32:06;;;;;;;8.40;5.78;;;6.40;99.90;;;;;;5071262;28;20048;-71
2024/01/31 11:34:32;;;;;;;7.20;5.15;;;6.40;99.90;;;;;;5071290;28;20082;-71
2024/01/31 11:36:58;;;;;;;8.32;5.38;;;6.40;99.90;;;;;;5071475;28;20106;-71
2024/01/31 11:39:24;;;;;;;7.55;5.50;;;6.40;99.90;;;;;;5071513;28;20044;-71
2024/01/31 11:41:50;;;;;;;8.20;6.03;;;6.30;99.90;;;;;;5071526;28;20396;-71
2024/01/31 11:44:15;;;;;;;8.02;6.45;;;6.30;99.90;;;;;;5071063;28;20416;-71
2024/01/31 11:46:41;;;;;;;12.98;6.93;;;6.30;99.90;;;;;;5072700;28;20086;-71
2024/01/31 11:49:07;;;;;;;6.82;6.13;;;6.30;99.90;;;;;;5075038;28;20044;-71
2024/01/31 11:51:33;;;;;;;8.90;6.47;;;6.30;99.90;;;;;;5074781;28;20045;-71
2024/01/31 11:53:59;;;;;;;7.43;6.20;;;6.30;99.90;;;;;;5076242;28;20033;-71
2024/01/31 11:56:26;;;;;;;7.70;6.70;;;6.30;99.90;;;;;;5074687;28;20036;-72
2024/01/31 11:58:51;;;;;;;7.70;6.00;;;6.30;99.90;;;;;;5074688;28;20045;-71
2024/01/31 12:01:17;;;;;;;9.88;6.80;;;6.40;99.90;;;;;;5074638;28;20051;-71
2024/01/31 12:03:43;;;;;;;8.68;7.00;;;6.30;99.90;;;;;;5074868;28;20044;-71
2024/01/31 12:06:09;;;;;;;9.63;6.63;;;6.40;99.90;;;;;;5074484;28;20067;-71
2024/01/31 12:08:35;;;;;;;8.88;6.95;;;6.40;99.90;;;;;;5076014;28;20052;-70
2024/01/31 12:11:01;;;;;;;8.07;7.00;;;6.40;99.90;;;;;;5074501;28;20072;-70
2024/01/31 12:13:27;;;;;;;8.35;7.20;;;6.40;99.90;;;;;;5074682;28;20053;-70
2024/01/31 12:15:55;;;;;;;7.53;6.63;;;6.50;99.90;;;;;;5074322;28;20036;-70
2024/01/31 12:18:20;;;;;;;8.15;6.90;;;6.50;99.90;;;;;;5075585;28;20117;-71
2024/01/31 12:20:46;;;;;;;7.97;6.97;;;6.50;99.90;;;;;;5075808;28;20079;-71
2024/01/31 12:23:11;;;;;;;9.02;6.80;;;6.60;99.90;;;;;;5074514;28;20041;-71
2024/01/31 12:25:37;;;;;;;9.05;6.25;;;6.60;99.90;;;;;;5075653;28;20549;-71
2024/01/31 12:28:03;;;;;;;8.10;6.97;;;6.60;99.90;;;;;;5075642;28;20043;-71
2024/01/31 12:30:29;;;;;;;8.48;5.88;;;6.60;99.90;;;;;;5075219;28;20398;-71
2024/01/31 12:32:54;;;;;;;8.38;6.32;;;6.60;99.90;;;;;;5075568;28;20028;-71
2024/01/31 12:35:20;;;;;;;7.28;6.38;;;6.60;99.90;;;;;;5073949;28;20068;-71
2024/01/31 12:37:46;;;;;;;10.13;6.35;;;6.70;99.90;;;;;;5075613;28;20036;-71
2024/01/31 12:40:12;;;;;;;10.30;6.72;;;6.70;99.90;;;;;;5075993;28;20056;-71
2024/01/31 12:42:38;;;;;;;8.48;6.57;;;6.70;99.90;;;;;;5075538;28;20037;-71
2024/01/31 12:45:04;;;;;;;7.70;6.38;;;6.70;99.90;;;;;;5073742;28;20048;-70
2024/01/31 12:47:30;;;;;;;10.43;6.78;;;6.70;99.90;;;;;;5073736;28;20078;-71
2024/01/31 12:49:55;;;;;;;11.43;7.22;;;6.70;99.90;;;;;;5073703;28;20044;-71